sensor_id;sensor_type;location;lat;lon;timestamp;pressure;altitude;pressure_sealevel;temperature;humidity
45129;BME280;35512;56.312;101.728;2022-08-16T00:01:23;95262.31;;;12.60;68.21
45129;BME280;35512;56.312;101.728;2022-08-16T00:04:00;95254.16;;;12.64;67.99
45129;BME280;35512;56.312;101.728;2022-08-16T00:06:32;95260.97;;;12.76;68.35
45129;BME280;35512;56.312;101.728;2022-08-16T00:09:03;95234.72;;;12.69;67.79
45129;BME280;35512;56.312;101.728;2022-08-16T00:11:33;95246.16;;;12.84;67.83
45129;BME280;35512;56.312;101.728;2022-08-16T00:14:04;95253.94;;;12.82;67.81
45129;BME280;35512;56.312;101.728;2022-08-16T00:16:36;95245.81;;;12.82;67.37
45129;BME280;35512;56.312;101.728;2022-08-16T00:19:29;95251.31;;;12.75;67.68
45129;BME280;35512;56.312;101.728;2022-08-16T00:22:09;95257.66;;;12.61;67.59
45129;BME280;35512;56.312;101.728;2022-08-16T00:24:43;95255.22;;;12.36;67.87
45129;BME280;35512;56.312;101.728;2022-08-16T00:27:14;95252.38;;;12.08;67.81
45129;BME280;35512;56.312;101.728;2022-08-16T00:29:44;95243.63;;;11.90;68.60
45129;BME280;35512;56.312;101.728;2022-08-16T00:32:13;95252.94;;;11.85;68.43
45129;BME280;35512;56.312;101.728;2022-08-16T00:34:45;95249.44;;;11.84;69.04
45129;BME280;35512;56.312;101.728;2022-08-16T00:37:23;95251.75;;;11.86;68.85
45129;BME280;35512;56.312;101.728;2022-08-16T00:40:16;95235.56;;;11.82;69.00
45129;BME280;35512;56.312;101.728;2022-08-16T00:43:06;95246.00;;;11.80;68.99
45129;BME280;35512;56.312;101.728;2022-08-16T00:46:00;95234.84;;;11.75;68.74
45129;BME280;35512;56.312;101.728;2022-08-16T00:48:52;95239.91;;;11.73;68.66
45129;BME280;35512;56.312;101.728;2022-08-16T00:51:22;95244.16;;;11.70;68.61
45129;BME280;35512;56.312;101.728;2022-08-16T00:53:56;95245.66;;;11.75;68.57
45129;BME280;35512;56.312;101.728;2022-08-16T00:56:29;95248.34;;;11.78;68.66
45129;BME280;35512;56.312;101.728;2022-08-16T00:59:21;95234.34;;;11.87;68.28
45129;BME280;35512;56.312;101.728;2022-08-16T01:01:51;95235.47;;;11.93;67.86
45129;BME280;35512;56.312;101.728;2022-08-16T01:04:23;95238.16;;;12.00;67.76
45129;BME280;35512;56.312;101.728;2022-08-16T01:06:59;95243.88;;;12.06;67.55
45129;BME280;35512;56.312;101.728;2022-08-16T01:09:36;95241.97;;;12.07;67.54
45129;BME280;35512;56.312;101.728;2022-08-16T01:12:10;95241.19;;;12.06;67.35
45129;BME280;35512;56.312;101.728;2022-08-16T01:14:56;95234.94;;;12.13;67.42
45129;BME280;35512;56.312;101.728;2022-08-16T01:17:27;95232.56;;;12.18;67.43
45129;BME280;35512;56.312;101.728;2022-08-16T01:20:06;95236.38;;;12.25;67.29
45129;BME280;35512;56.312;101.728;2022-08-16T01:22:53;95233.63;;;12.28;66.84
45129;BME280;35512;56.312;101.728;2022-08-16T01:25:32;95227.09;;;12.26;66.96
45129;BME280;35512;56.312;101.728;2022-08-16T01:28:10;95227.53;;;12.21;67.40
45129;BME280;35512;56.312;101.728;2022-08-16T01:30:54;95241.91;;;12.14;66.96
45129;BME280;35512;56.312;101.728;2022-08-16T01:33:25;95236.09;;;12.12;67.02
45129;BME280;35512;56.312;101.728;2022-08-16T01:36:04;95235.75;;;12.10;67.17
45129;BME280;35512;56.312;101.728;2022-08-16T01:38:43;95231.47;;;12.12;67.19
45129;BME280;35512;56.312;101.728;2022-08-16T01:41:21;95230.69;;;12.12;66.98
45129;BME280;35512;56.312;101.728;2022-08-16T01:43:54;95229.09;;;12.18;66.94
45129;BME280;35512;56.312;101.728;2022-08-16T01:46:37;95231.41;;;12.16;66.52
45129;BME280;35512;56.312;101.728;2022-08-16T01:49:33;95219.50;;;12.10;66.75
45129;BME280;35512;56.312;101.728;2022-08-16T01:52:22;95211.84;;;12.01;66.21
45129;BME280;35512;56.312;101.728;2022-08-16T01:55:17;95222.72;;;11.97;66.44
45129;BME280;35512;56.312;101.728;2022-08-16T01:57:50;95200.41;;;11.82;66.70
45129;BME280;35512;56.312;101.728;2022-08-16T02:00:25;95221.56;;;11.95;66.37
45129;BME280;35512;56.312;101.728;2022-08-16T02:02:58;95205.31;;;11.98;66.57
45129;BME280;35512;56.312;101.728;2022-08-16T02:05:29;95216.00;;;12.13;66.37
45129;BME280;35512;56.312;101.728;2022-08-16T02:08:02;95208.53;;;12.24;65.95
45129;BME280;35512;56.312;101.728;2022-08-16T02:10:34;95204.97;;;12.31;65.86
45129;BME280;35512;56.312;101.728;2022-08-16T02:13:05;95206.13;;;12.33;65.27
45129;BME280;35512;56.312;101.728;2022-08-16T02:15:39;95220.47;;;12.30;64.98
45129;BME280;35512;56.312;101.728;2022-08-16T02:18:13;95209.72;;;12.23;64.75
45129;BME280;35512;56.312;101.728;2022-08-16T02:20:49;95222.13;;;12.21;64.60
45129;BME280;35512;56.312;101.728;2022-08-16T02:23:22;95218.63;;;12.20;64.83
45129;BME280;35512;56.312;101.728;2022-08-16T02:25:50;95220.53;;;12.23;64.33
45129;BME280;35512;56.312;101.728;2022-08-16T02:28:23;95214.44;;;12.15;64.25
45129;BME280;35512;56.312;101.728;2022-08-16T02:30:56;95211.91;;;11.97;64.44
45129;BME280;35512;56.312;101.728;2022-08-16T02:33:26;95212.38;;;11.85;64.52
45129;BME280;35512;56.312;101.728;2022-08-16T02:36:23;95215.50;;;11.76;64.79
